sensor_id;sensor_type;location;lat;lon;timestamp;P1;durP1;ratioP1;P2;durP2;ratioP2
6937;SDS011;40040;42.706;23.372;2023-01-16T00:01:39;70.87;;;31.33;;
6937;SDS011;40040;42.706;23.372;2023-01-16T00:04:06;75.13;;;30.73;;
6937;SDS011;40040;42.706;23.372;2023-01-16T00:06:33;72.10;;;31.77;;
6937;SDS011;40040;42.706;23.372;2023-01-16T00:09:02;72.37;;;29.43;;
6937;SDS011;40040;42.706;23.372;2023-01-16T00:11:30;68.27;;;28.93;;
6937;SDS011;40040;42.706;23.372;2023-01-16T00:13:56;72.60;;;30.50;;
6937;SDS011;40040;42.706;23.372;2023-01-16T00:16:24;66.93;;;28.47;;
6937;SDS011;40040;42.706;23.372;2023-01-16T00:18:51;63.23;;;27.37;;
6937;SDS011;40040;42.706;23.372;2023-01-16T00:21:18;63.20;;;27.40;;
6937;SDS011;40040;42.706;23.372;2023-01-16T00:23:45;60.43;;;27.30;;
6937;SDS011;40040;42.706;23.372;2023-01-16T00:26:14;58.73;;;25.17;;
6937;SDS011;40040;42.706;23.372;2023-01-16T00:28:40;75.03;;;29.03;;
6937;SDS011;40040;42.706;23.372;2023-01-16T00:31:07;71.83;;;30.00;;
6937;SDS011;40040;42.706;23.372;2023-01-16T00:33:34;68.70;;;29.40;;
6937;SDS011;40040;42.706;23.372;2023-01-16T00:36:01;60.30;;;26.10;;
6937;SDS011;40040;42.706;23.372;2023-01-16T00:38:28;51.50;;;22.97;;
6937;SDS011;40040;42.706;23.372;2023-01-16T00:40:56;64.20;;;25.97;;
6937;SDS011;40040;42.706;23.372;2023-01-16T00:43:24;61.53;;;26.63;;
6937;SDS011;40040;42.706;23.372;2023-01-16T00:45:51;56.43;;;24.83;;
6937;SDS011;40040;42.706;23.372;2023-01-16T00:48:18;58.97;;;26.47;;
6937;SDS011;40040;42.706;23.372;2023-01-16T00:50:45;62.77;;;25.77;;
6937;SDS011;40040;42.706;23.372;2023-01-16T00:53:12;60.23;;;25.57;;
6937;SDS011;40040;42.706;23.372;2023-01-16T00:55:39;51.60;;;24.27;;
6937;SDS011;40040;42.706;23.372;2023-01-16T00:58:07;57.60;;;26.13;;
6937;SDS011;40040;42.706;23.372;2023-01-16T01:00:36;58.70;;;24.73;;
6937;SDS011;40040;42.706;23.372;2023-01-16T01:03:03;59.87;;;25.37;;
6937;SDS011;40040;42.706;23.372;2023-01-16T01:05:34;58.70;;;24.53;;
6937;SDS011;40040;42.706;23.372;2023-01-16T01:08:01;60.10;;;24.40;;
6937;SDS011;40040;42.706;23.372;2023-01-16T01:10:28;51.27;;;23.00;;
6937;SDS011;40040;42.706;23.372;2023-01-16T01:12:55;61.90;;;24.37;;
6937;SDS011;40040;42.706;23.372;2023-01-16T01:15:22;59.63;;;25.53;;
6937;SDS011;40040;42.706;23.372;2023-01-16T01:17:51;56.57;;;24.63;;
6937;SDS011;40040;42.706;23.372;2023-01-16T01:20:17;61.13;;;25.47;;
6937;SDS011;40040;42.706;23.372;2023-01-16T01:22:45;57.70;;;24.87;;
6937;SDS011;40040;42.706;23.372;2023-01-16T01:25:11;53.63;;;24.13;;
6937;SDS011;40040;42.706;23.372;2023-01-16T01:27:39;64.20;;;26.90;;
6937;SDS011;40040;42.706;23.372;2023-01-16T01:30:06;65.50;;;26.10;;
6937;SDS011;40040;42.706;23.372;2023-01-16T01:32:34;62.57;;;27.83;;
6937;SDS011;40040;42.706;23.372;2023-01-16T01:35:04;77.73;;;30.77;;
6937;SDS011;40040;42.706;23.372;2023-01-16T01:37:31;90.47;;;32.97;;
6937;SDS011;40040;42.706;23.372;2023-01-16T01:39:59;94.63;;;35.60;;
6937;SDS011;40040;42.706;23.372;2023-01-16T01:42:26;87.40;;;34.67;;
6937;SDS011;40040;42.706;23.372;2023-01-16T01:45:18;90.10;;;33.53;;
6937;SDS011;40040;42.706;23.372;2023-01-16T01:47:47;80.10;;;31.80;;
6937;SDS011;40040;42.706;23.372;2023-01-16T01:50:33;82.40;;;33.30;;
6937;SDS011;40040;42.706;23.372;2023-01-16T01:53:07;74.37;;;30.17;;
6937;SDS011;40040;42.706;23.372;2023-01-16T01:55:39;72.27;;;29.97;;
6937;SDS011;40040;42.706;23.372;2023-01-16T01:58:08;77.63;;;31.67;;
6937;SDS011;40040;42.706;23.372;2023-01-16T02:00:36;78.73;;;29.97;;
6937;SDS011;40040;42.706;23.372;2023-01-16T02:03:04;94.10;;;33.03;;
6937;SDS011;40040;42.706;23.372;2023-01-16T02:05:36;74.20;;;31.43;;
6937;SDS011;40040;42.706;23.372;2023-01-16T02:08:10;73.00;;;28.93;;
6937;SDS011;40040;42.706;23.372;2023-01-16T02:10:40;84.03;;;31.73;;
6937;SDS011;40040;42.706;23.372;2023-01-16T02:13:11;83.60;;;33.20;;
6937;SDS011;40040;42.706;23.372;2023-01-16T02:15:38;77.27;;;32.80;;
6937;SDS011;40040;42.706;23.372;2023-01-16T02:18:26;71.83;;;30.63;;
6937;SDS011;40040;42.706;23.372;2023-01-16T02:21:14;70.00;;;29.70;;
6937;SDS011;40040;42.706;23.372;2023-01-16T02:24:07;59.47;;;26.90;;
6937;SDS011;40040;42.706;23.372;2023-01-16T02:30:24;57.67;;;24.70;;
6937;SDS011;40040;42.706;23.372;2023-01-16T02:33:05;56.27;;;24.43;;
6937;SDS011;40040;42.706;23.372;2023-01-16T02:35:49;63.20;;;25.47;;
6937;SDS011;40040;42.706;23.372;2023-01-16T02:38:28;61.43;;;24.83;;
6937;SDS011;40040;42.706;23.372;2023-01-16T02:41:04;55.60;;;23.63;;
6937;SDS011;40040;42.706;23.372;2023-01-16T02:43:42;56.67;;;25.70;;
6937;SDS011;40040;42.706;23.372;2023-01-16T02:46:18;62.93;;;25.93;;
6937;SDS011;40040;42.706;23.372;2023-01-16T02:48:55;57.93;;;24.70;;
6937;SDS011;40040;42.706;23.372;2023-01-16T02:51:29;66.87;;;26.33;;
6937;SDS011;40040;42.706;23.372;2023-01-16T02:54:03;67.53;;;25.40;;
6937;SDS011;40040;42.706;23.372;2023-01-16T02:56:38;68.37;;;26.00;;
6937;SDS011;40040;42.706;23.372;2023-01-16T02:59:12;73.50;;;27.77;;
6937;SDS011;40040;42.706;23.372;2023-01-16T03:01:43;71.30;;;26.00;;
6937;SDS011;40040;42.706;23.372;2023-01-16T03:07:19;80.23;;;27.67;;
6937;SDS011;40040;42.706;23.372;2023-01-16T03:09:58;67.10;;;25.53;;
6937;SDS011;40040;42.706;23.372;2023-01-16T03:12:36;69.90;;;26.83;;
6937;SDS011;40040;42.706;23.372;2023-01-16T03:15:13;63.93;;;25.30;;
6937;SDS011;40040;42.706;23.372;2023-01-16T03:17:50;65.37;;;26.70;;
6937;SDS011;40040;42.706;23.372;2023-01-16T03:20:33;62.43;;;25.87;;
6937;SDS011;40040;42.706;23.372;2023-01-16T03:23:12;61.27;;;25.27;;
6937;SDS011;40040;42.706;23.372;2023-01-16T03:25:47;64.60;;;25.43;;
6937;SDS011;40040;42.706;23.372;2023-01-16T03:28:20;66.20;;;27.67;;
6937;SDS011;40040;42.706;23.372;2023-01-16T03:30:52;60.87;;;26.03;;
6937;SDS011;40040;42.706;23.372;2023-01-16T03:33:31;62.90;;;26.70;;
6937;SDS011;40040;42.706;23.372;2023-01-16T03:36:10;65.80;;;25.33;;
6937;SDS011;40040;42.706;23.372;2023-01-16T03:38:39;64.47;;;26.53;;
6937;SDS011;40040;42.706;23.372;2023-01-16T03:41:10;58.53;;;25.53;;
6937;SDS011;40040;42.706;23.372;2023-01-16T03:43:42;69.73;;;27.50;;
6937;SDS011;40040;42.706;23.372;2023-01-16T03:46:15;63.67;;;26.40;;
6937;SDS011;40040;42.706;23.372;2023-01-16T03:48:45;73.43;;;28.80;;
6937;SDS011;40040;42.706;23.372;2023-01-16T03:51:20;64.77;;;26.33;;
6937;SDS011;40040;42.706;23.372;2023-01-16T03:53:51;65.73;;;27.63;;
6937;SDS011;40040;42.706;23.372;2023-01-16T03:56:26;77.70;;;29.47;;
6937;SDS011;40040;42.706;23.372;2023-01-16T03:58:58;70.33;;;30.27;;
6937;SDS011;40040;42.706;23.372;2023-01-16T04:01:26;78.57;;;30.20;;
6937;SDS011;40040;42.706;23.372;2023-01-16T04:04:03;68.80;;;28.87;;
6937;SDS011;40040;42.706;23.372;2023-01-16T04:06:36;68.70;;;30.20;;
6937;SDS011;40040;42.706;23.372;2023-01-16T04:09:13;74.77;;;29.63;;
6937;SDS011;40040;42.706;23.372;2023-01-16T04:11:44;72.43;;;29.97;;
6937;SDS011;40040;42.706;23.372;2023-01-16T04:14:15;71.57;;;29.70;;
6937;SDS011;40040;42.706;23.372;2023-01-16T04:16:46;70.43;;;29.43;;
6937;SDS011;40040;42.706;23.372;2023-01-16T04:19:13;67.70;;;28.23;;
6937;SDS011;40040;42.706;23.372;2023-01-16T04:21:46;59.27;;;23.33;;
6937;SDS011;40040;42.706;23.372;2023-01-16T04:24:13;48.83;;;19.27;;
6937;SDS011;40040;42.706;23.372;2023-01-16T04:26:41;43.40;;;19.47;;
6937;SDS011;40040;42.706;23.372;2023-01-16T04:29:08;53.93;;;20.47;;
6937;SDS011;40040;42.706;23.372;2023-01-16T04:31:35;47.97;;;19.80;;
6937;SDS011;40040;42.706;23.372;2023-01-16T04:34:02;46.30;;;18.90;;
6937;SDS011;40040;42.706;23.372;2023-01-16T04:36:29;46.83;;;19.17;;
6937;SDS011;40040;42.706;23.372;2023-01-16T04:38:58;46.90;;;18.77;;
6937;SDS011;40040;42.706;23.372;2023-01-16T04:41:24;44.17;;;18.13;;
6937;SDS011;40040;42.706;23.372;2023-01-16T04:44:06;45.57;;;21.40;;
6937;SDS011;40040;42.706;23.372;2023-01-16T04:46:34;69.27;;;26.33;;
6937;SDS011;40040;42.706;23.372;2023-01-16T04:49:03;47.27;;;20.87;;
6937;SDS011;40040;42.706;23.372;2023-01-16T04:51:30;42.17;;;19.30;;
6937;SDS011;40040;42.706;23.372;2023-01-16T04:53:58;46.80;;;21.03;;
6937;SDS011;40040;42.706;23.372;2023-01-16T04:56:25;64.77;;;28.20;;
6937;SDS011;40040;42.706;23.372;2023-01-16T04:58:52;51.40;;;23.80;;
6937;SDS011;40040;42.706;23.372;2023-01-16T05:01:20;41.63;;;18.23;;
6937;SDS011;40040;42.706;23.372;2023-01-16T05:03:47;52.00;;;23.37;;
6937;SDS011;40040;42.706;23.372;2023-01-16T05:06:14;45.57;;;21.00;;
6937;SDS011;40040;42.706;23.372;2023-01-16T05:08:41;66.87;;;27.33;;
6937;SDS011;40040;42.706;23.372;2023-01-16T05:11:10;48.43;;;23.07;;
6937;SDS011;40040;42.706;23.372;2023-01-16T05:13:36;56.27;;;24.10;;
6937;SDS011;40040;42.706;23.372;2023-01-16T05:16:03;52.27;;;23.20;;
6937;SDS011;40040;42.706;23.372;2023-01-16T05:18:31;68.73;;;28.30;;
6937;SDS011;40040;42.706;23.372;2023-01-16T05:20:58;72.10;;;26.13;;
6937;SDS011;40040;42.706;23.372;2023-01-16T05:23:25;59.23;;;24.57;;
6937;SDS011;40040;42.706;23.372;2023-01-16T05:25:52;56.63;;;24.53;;
6937;SDS011;40040;42.706;23.372;2023-01-16T05:28:21;54.90;;;24.57;;
6937;SDS011;40040;42.706;23.372;2023-01-16T05:30:48;60.20;;;24.53;;
6937;SDS011;40040;42.706;23.372;2023-01-16T05:33:15;57.17;;;25.27;;
6937;SDS011;40040;42.706;23.372;2023-01-16T05:35:42;57.77;;;24.93;;
6937;SDS011;40040;42.706;23.372;2023-01-16T05:38:10;60.63;;;25.97;;
6937;SDS011;40040;42.706;23.372;2023-01-16T05:40:37;62.67;;;23.77;;
6937;SDS011;40040;42.706;23.372;2023-01-16T05:43:04;57.00;;;24.57;;
6937;SDS011;40040;42.706;23.372;2023-01-16T05:45:32;55.47;;;25.80;;
6937;SDS011;40040;42.706;23.372;2023-01-16T05:47:59;70.00;;;28.60;;
6937;SDS011;40040;42.706;23.372;2023-01-16T05:50:26;65.30;;;28.43;;
6937;SDS011;40040;42.706;23.372;2023-01-16T05:52:53;74.73;;;27.50;;
6937;SDS011;40040;42.706;23.372;2023-01-16T05:55:20;66.83;;;28.37;;
6937;SDS011;40040;42.706;23.372;2023-01-16T05:57:47;60.20;;;26.53;;
6937;SDS011;40040;42.706;23.372;2023-01-16T06:00:14;62.63;;;27.03;;
6937;SDS011;40040;42.706;23.372;2023-01-16T06:02:43;62.03;;;27.60;;
6937;SDS011;40040;42.706;23.372;2023-01-16T06:05:11;75.67;;;32.17;;
6937;SDS011;40040;42.706;23.372;2023-01-16T06:07:38;81.53;;;34.30;;
6937;SDS011;40040;42.706;23.372;2023-01-16T06:10:07;81.10;;;35.50;;
6937;SDS011;40040;42.706;23.372;2023-01-16T06:12:35;93.93;;;38.80;;
6937;SDS011;40040;42.706;23.372;2023-01-16T06:15:01;112.43;;;44.07;;
6937;SDS011;40040;42.706;23.372;2023-01-16T06:17:29;113.63;;;45.43;;
6937;SDS011;40040;42.706;23.372;2023-01-16T06:19:57;126.93;;;47.47;;
6937;SDS011;40040;42.706;23.372;2023-01-16T06:22:24;109.53;;;45.30;;
6937;SDS011;40040;42.706;23.372;2023-01-16T06:24:51;120.97;;;47.63;;
6937;SDS011;40040;42.706;23.372;2023-01-16T06:27:18;119.47;;;48.00;;
6937;SDS011;40040;42.706;23.372;2023-01-16T06:29:45;136.83;;;50.33;;
6937;SDS011;40040;42.706;23.372;2023-01-16T06:32:12;122.47;;;47.50;;
6937;SDS011;40040;42.706;23.372;2023-01-16T06:34:41;105.27;;;40.37;;
6937;SDS011;40040;42.706;23.372;2023-01-16T06:37:09;99.00;;;37.90;;
6937;SDS011;40040;42.706;23.372;2023-01-16T06:39:36;97.43;;;36.17;;
6937;SDS011;40040;42.706;23.372;2023-01-16T06:42:03;83.67;;;32.63;;
6937;SDS011;40040;42.706;23.372;2023-01-16T06:44:30;90.47;;;34.00;;
6937;SDS011;40040;42.706;23.372;2023-01-16T06:46:58;103.80;;;36.30;;
6937;SDS011;40040;42.706;23.372;2023-01-16T06:49:24;113.20;;;38.17;;
6937;SDS011;40040;42.706;23.372;2023-01-16T06:51:51;168.37;;;56.17;;
6937;SDS011;40040;42.706;23.372;2023-01-16T06:54:19;140.00;;;41.40;;
6937;SDS011;40040;42.706;23.372;2023-01-16T06:56:46;91.20;;;34.57;;
6937;SDS011;40040;42.706;23.372;2023-01-16T06:59:13;118.80;;;39.47;;
6937;SDS011;40040;42.706;23.372;2023-01-16T07:01:40;102.30;;;34.07;;
6937;SDS011;40040;42.706;23.372;2023-01-16T07:04:07;111.53;;;33.87;;
6937;SDS011;40040;42.706;23.372;2023-01-16T07:06:35;104.60;;;36.30;;
6937;SDS011;40040;42.706;23.372;2023-01-16T07:09:02;90.73;;;32.40;;
6937;SDS011;40040;42.706;23.372;2023-01-16T07:11:31;71.43;;;24.03;;
6937;SDS011;40040;42.706;23.372;2023-01-16T07:13:58;77.93;;;24.90;;
6937;SDS011;40040;42.706;23.372;2023-01-16T07:16:38;67.90;;;27.27;;
6937;SDS011;40040;42.706;23.372;2023-01-16T07:19:23;83.43;;;27.00;;
6937;SDS011;40040;42.706;23.372;2023-01-16T07:22:04;81.30;;;27.90;;
6937;SDS011;40040;42.706;23.372;2023-01-16T07:24:48;87.97;;;29.50;;
6937;SDS011;40040;42.706;23.372;2023-01-16T07:27:17;97.20;;;30.47;;
6937;SDS011;40040;42.706;23.372;2023-01-16T07:29:44;86.20;;;29.87;;
6937;SDS011;40040;42.706;23.372;2023-01-16T07:32:10;86.57;;;29.63;;
6937;SDS011;40040;42.706;23.372;2023-01-16T07:34:37;87.37;;;28.80;;
6937;SDS011;40040;42.706;23.372;2023-01-16T07:37:04;82.53;;;28.23;;
6937;SDS011;40040;42.706;23.372;2023-01-16T07:39:32;85.33;;;28.47;;
6937;SDS011;40040;42.706;23.372;2023-01-16T07:42:02;80.80;;;28.63;;
6937;SDS011;40040;42.706;23.372;2023-01-16T07:44:30;88.20;;;27.00;;
6937;SDS011;40040;42.706;23.372;2023-01-16T07:46:57;83.73;;;27.70;;
6937;SDS011;40040;42.706;23.372;2023-01-16T07:49:24;65.80;;;26.13;;
6937;SDS011;40040;42.706;23.372;2023-01-16T07:51:51;78.67;;;29.00;;
6937;SDS011;40040;42.706;23.372;2023-01-16T07:54:18;81.77;;;27.40;;
6937;SDS011;40040;42.706;23.372;2023-01-16T07:56:46;92.47;;;33.30;;
6937;SDS011;40040;42.706;23.372;2023-01-16T07:59:13;108.90;;;35.87;;
6937;SDS011;40040;42.706;23.372;2023-01-16T08:01:41;140.43;;;46.50;;
6937;SDS011;40040;42.706;23.372;2023-01-16T08:04:10;88.57;;;31.60;;
6937;SDS011;40040;42.706;23.372;2023-01-16T08:06:37;73.27;;;25.90;;
6937;SDS011;40040;42.706;23.372;2023-01-16T08:09:08;64.03;;;23.37;;
6937;SDS011;40040;42.706;23.372;2023-01-16T08:11:35;60.93;;;21.63;;
6937;SDS011;40040;42.706;23.372;2023-01-16T08:14:04;66.07;;;26.17;;
6937;SDS011;40040;42.706;23.372;2023-01-16T08:16:32;59.47;;;24.57;;
6937;SDS011;40040;42.706;23.372;2023-01-16T08:19:00;70.90;;;26.97;;
6937;SDS011;40040;42.706;23.372;2023-01-16T08:21:27;63.83;;;27.57;;
6937;SDS011;40040;42.706;23.372;2023-01-16T08:23:54;67.97;;;29.50;;
6937;SDS011;40040;42.706;23.372;2023-01-16T08:26:21;67.60;;;28.10;;
6937;SDS011;40040;42.706;23.372;2023-01-16T08:28:48;71.77;;;29.23;;
6937;SDS011;40040;42.706;23.372;2023-01-16T08:31:15;83.30;;;33.33;;
6937;SDS011;40040;42.706;23.372;2023-01-16T08:33:43;72.93;;;32.13;;
6937;SDS011;40040;42.706;23.372;2023-01-16T08:36:12;58.43;;;25.93;;
6937;SDS011;40040;42.706;23.372;2023-01-16T08:38:40;104.53;;;41.07;;
6937;SDS011;40040;42.706;23.372;2023-01-16T08:41:07;160.90;;;56.80;;
6937;SDS011;40040;42.706;23.372;2023-01-16T08:43:55;79.20;;;33.03;;
6937;SDS011;40040;42.706;23.372;2023-01-16T08:46:40;89.87;;;36.13;;
6937;SDS011;40040;42.706;23.372;2023-01-16T08:49:24;74.23;;;27.07;;
6937;SDS011;40040;42.706;23.372;2023-01-16T08:52:11;66.87;;;28.53;;
6937;SDS011;40040;42.706;23.372;2023-01-16T08:54:38;86.63;;;34.20;;
6937;SDS011;40040;42.706;23.372;2023-01-16T08:57:05;87.33;;;32.83;;
6937;SDS011;40040;42.706;23.372;2023-01-16T08:59:32;67.80;;;29.50;;
6937;SDS011;40040;42.706;23.372;2023-01-16T09:01:59;79.13;;;32.57;;
6937;SDS011;40040;42.706;23.372;2023-01-16T09:04:27;67.47;;;28.17;;
6937;SDS011;40040;42.706;23.372;2023-01-16T09:06:54;74.43;;;28.97;;
6937;SDS011;40040;42.706;23.372;2023-01-16T09:09:22;72.73;;;28.53;;
6937;SDS011;40040;42.706;23.372;2023-01-16T09:11:53;71.07;;;28.20;;
6937;SDS011;40040;42.706;23.372;2023-01-16T09:14:38;75.70;;;26.70;;
6937;SDS011;40040;42.706;23.372;2023-01-16T09:17:05;61.13;;;24.63;;
6937;SDS011;40040;42.706;23.372;2023-01-16T09:19:33;59.60;;;26.27;;
6937;SDS011;40040;42.706;23.372;2023-01-16T09:22:00;62.80;;;24.13;;
6937;SDS011;40040;42.706;23.372;2023-01-16T09:24:32;53.40;;;23.90;;
6937;SDS011;40040;42.706;23.372;2023-01-16T09:27:00;56.87;;;22.93;;
6937;SDS011;40040;42.706;23.372;2023-01-16T09:29:27;56.23;;;23.80;;
6937;SDS011;40040;42.706;23.372;2023-01-16T09:31:54;71.67;;;31.50;;
6937;SDS011;40040;42.706;23.372;2023-01-16T09:34:21;59.30;;;24.90;;
6937;SDS011;40040;42.706;23.372;2023-01-16T09:36:48;60.20;;;26.13;;
6937;SDS011;40040;42.706;23.372;2023-01-16T09:39:14;53.07;;;25.00;;
6937;SDS011;40040;42.706;23.372;2023-01-16T09:41:45;36.57;;;16.70;;
6937;SDS011;40040;42.706;23.372;2023-01-16T09:44:40;38.53;;;19.77;;
6937;SDS011;40040;42.706;23.372;2023-01-16T09:47:10;47.23;;;20.90;;
6937;SDS011;40040;42.706;23.372;2023-01-16T09:49:39;53.47;;;24.40;;
6937;SDS011;40040;42.706;23.372;2023-01-16T09:52:15;52.70;;;23.57;;
6937;SDS011;40040;42.706;23.372;2023-01-16T09:55:03;121.30;;;52.03;;
6937;SDS011;40040;42.706;23.372;2023-01-16T09:57:56;44.97;;;20.67;;
6937;SDS011;40040;42.706;23.372;2023-01-16T10:00:40;92.60;;;36.97;;
6937;SDS011;40040;42.706;23.372;2023-01-16T10:03:08;40.80;;;18.80;;
6937;SDS011;40040;42.706;23.372;2023-01-16T10:05:37;49.93;;;23.50;;
6937;SDS011;40040;42.706;23.372;2023-01-16T10:08:12;171.10;;;67.33;;
6937;SDS011;40040;42.706;23.372;2023-01-16T10:10:49;65.67;;;30.63;;
6937;SDS011;40040;42.706;23.372;2023-01-16T10:13:30;89.43;;;37.20;;
6937;SDS011;40040;42.706;23.372;2023-01-16T10:16:13;56.73;;;28.33;;
6937;SDS011;40040;42.706;23.372;2023-01-16T10:18:46;56.70;;;23.83;;
6937;SDS011;40040;42.706;23.372;2023-01-16T10:24:18;54.77;;;28.23;;
6937;SDS011;40040;42.706;23.372;2023-01-16T10:26:56;33.70;;;17.13;;
6937;SDS011;40040;42.706;23.372;2023-01-16T10:29:28;37.73;;;19.20;;
6937;SDS011;40040;42.706;23.372;2023-01-16T10:32:01;61.47;;;32.77;;
6937;SDS011;40040;42.706;23.372;2023-01-16T10:34:33;34.13;;;17.30;;
6937;SDS011;40040;42.706;23.372;2023-01-16T10:37:05;35.07;;;16.87;;
6937;SDS011;40040;42.706;23.372;2023-01-16T10:39:34;40.07;;;20.03;;
6937;SDS011;40040;42.706;23.372;2023-01-16T10:42:08;44.83;;;21.50;;
6937;SDS011;40040;42.706;23.372;2023-01-16T10:44:58;32.97;;;17.57;;
6937;SDS011;40040;42.706;23.372;2023-01-16T10:47:53;34.50;;;18.37;;
6937;SDS011;40040;42.706;23.372;2023-01-16T10:50:38;40.67;;;20.70;;
6937;SDS011;40040;42.706;23.372;2023-01-16T10:53:06;37.83;;;15.73;;
6937;SDS011;40040;42.706;23.372;2023-01-16T10:55:35;108.13;;;42.43;;
6937;SDS011;40040;42.706;23.372;2023-01-16T10:58:05;72.90;;;27.27;;
6937;SDS011;40040;42.706;23.372;2023-01-16T11:00:40;57.50;;;26.03;;
6937;SDS011;40040;42.706;23.372;2023-01-16T11:03:10;51.53;;;22.67;;
6937;SDS011;40040;42.706;23.372;2023-01-16T11:05:43;55.33;;;23.97;;
6937;SDS011;40040;42.706;23.372;2023-01-16T11:08:10;41.80;;;18.93;;
6937;SDS011;40040;42.706;23.372;2023-01-16T11:10:39;32.53;;;15.77;;
6937;SDS011;40040;42.706;23.372;2023-01-16T11:13:10;69.43;;;30.17;;
6937;SDS011;40040;42.706;23.372;2023-01-16T11:16:04;42.53;;;18.57;;
6937;SDS011;40040;42.706;23.372;2023-01-16T11:19:03;53.33;;;24.33;;
6937;SDS011;40040;42.706;23.372;2023-01-16T11:21:42;25.40;;;13.70;;
6937;SDS011;40040;42.706;23.372;2023-01-16T11:24:13;33.60;;;14.63;;
6937;SDS011;40040;42.706;23.372;2023-01-16T11:26:41;53.57;;;25.40;;
6937;SDS011;40040;42.706;23.372;2023-01-16T11:29:17;28.70;;;14.60;;
6937;SDS011;40040;42.706;23.372;2023-01-16T11:31:48;29.57;;;14.80;;
6937;SDS011;40040;42.706;23.372;2023-01-16T11:34:20;29.47;;;14.17;;
6937;SDS011;40040;42.706;23.372;2023-01-16T11:36:51;48.40;;;23.63;;
6937;SDS011;40040;42.706;23.372;2023-01-16T11:39:21;30.30;;;15.73;;
6937;SDS011;40040;42.706;23.372;2023-01-16T11:41:51;36.60;;;17.13;;
6937;SDS011;40040;42.706;23.372;2023-01-16T11:44:21;67.53;;;26.00;;
6937;SDS011;40040;42.706;23.372;2023-01-16T11:47:11;33.40;;;16.30;;
6937;SDS011;40040;42.706;23.372;2023-01-16T11:49:41;29.97;;;15.43;;
6937;SDS011;40040;42.706;23.372;2023-01-16T11:52:12;31.03;;;14.40;;
6937;SDS011;40040;42.706;23.372;2023-01-16T11:54:52;65.70;;;30.53;;
6937;SDS011;40040;42.706;23.372;2023-01-16T11:57:28;41.23;;;19.73;;
6937;SDS011;40040;42.706;23.372;2023-01-16T12:00:07;38.00;;;19.73;;
6937;SDS011;40040;42.706;23.372;2023-01-16T12:03:03;45.20;;;22.93;;
6937;SDS011;40040;42.706;23.372;2023-01-16T12:05:49;34.00;;;17.37;;
6937;SDS011;40040;42.706;23.372;2023-01-16T12:11:30;41.20;;;18.67;;
6937;SDS011;40040;42.706;23.372;2023-01-16T12:14:17;38.60;;;17.90;;
6937;SDS011;40040;42.706;23.372;2023-01-16T12:16:56;35.67;;;16.53;;
6937;SDS011;40040;42.706;23.372;2023-01-16T12:19:44;54.37;;;27.07;;
6937;SDS011;40040;42.706;23.372;2023-01-16T12:22:36;48.33;;;21.77;;
6937;SDS011;40040;42.706;23.372;2023-01-16T12:25:18;64.80;;;25.73;;
6937;SDS011;40040;42.706;23.372;2023-01-16T12:27:52;31.00;;;13.90;;
6937;SDS011;40040;42.706;23.372;2023-01-16T12:30:32;56.77;;;26.07;;
6937;SDS011;40040;42.706;23.372;2023-01-16T12:33:25;27.23;;;15.03;;
6937;SDS011;40040;42.706;23.372;2023-01-16T12:36:02;24.63;;;14.70;;
6937;SDS011;40040;42.706;23.372;2023-01-16T12:38:35;71.93;;;35.60;;
6937;SDS011;40040;42.706;23.372;2023-01-16T12:44:21;27.73;;;15.60;;
6937;SDS011;40040;42.706;23.372;2023-01-16T12:47:01;16.67;;;9.53;;
6937;SDS011;40040;42.706;23.372;2023-01-16T12:49:46;18.37;;;9.53;;
6937;SDS011;40040;42.706;23.372;2023-01-16T12:52:30;18.53;;;9.40;;
6937;SDS011;40040;42.706;23.372;2023-01-16T12:55:14;18.53;;;9.27;;
6937;SDS011;40040;42.706;23.372;2023-01-16T12:57:58;18.03;;;8.73;;
6937;SDS011;40040;42.706;23.372;2023-01-16T13:00:32;26.00;;;12.60;;
6937;SDS011;40040;42.706;23.372;2023-01-16T13:03:09;16.40;;;9.27;;
6937;SDS011;40040;42.706;23.372;2023-01-16T13:05:43;29.27;;;14.03;;
6937;SDS011;40040;42.706;23.372;2023-01-16T13:08:14;25.50;;;13.97;;
6937;SDS011;40040;42.706;23.372;2023-01-16T13:10:46;21.17;;;10.47;;
6937;SDS011;40040;42.706;23.372;2023-01-16T13:13:35;43.07;;;19.50;;
6937;SDS011;40040;42.706;23.372;2023-01-16T13:16:08;34.40;;;17.43;;
6937;SDS011;40040;42.706;23.372;2023-01-16T13:18:42;21.60;;;9.50;;
6937;SDS011;40040;42.706;23.372;2023-01-16T13:21:13;20.43;;;11.27;;
6937;SDS011;40040;42.706;23.372;2023-01-16T13:23:46;30.53;;;14.40;;
6937;SDS011;40040;42.706;23.372;2023-01-16T13:26:17;13.83;;;8.63;;
6937;SDS011;40040;42.706;23.372;2023-01-16T13:28:46;27.70;;;12.47;;
6937;SDS011;40040;42.706;23.372;2023-01-16T13:31:25;16.50;;;9.07;;
6937;SDS011;40040;42.706;23.372;2023-01-16T13:33:59;17.43;;;9.40;;
6937;SDS011;40040;42.706;23.372;2023-01-16T13:36:38;18.17;;;8.53;;
6937;SDS011;40040;42.706;23.372;2023-01-16T13:39:46;17.73;;;9.30;;
6937;SDS011;40040;42.706;23.372;2023-01-16T13:42:34;21.93;;;10.47;;
6937;SDS011;40040;42.706;23.372;2023-01-16T13:45:06;16.63;;;8.67;;
6937;SDS011;40040;42.706;23.372;2023-01-16T13:47:59;16.17;;;9.30;;
6937;SDS011;40040;42.706;23.372;2023-01-16T13:50:27;13.03;;;8.43;;
6937;SDS011;40040;42.706;23.372;2023-01-16T13:52:56;14.57;;;8.20;;
6937;SDS011;40040;42.706;23.372;2023-01-16T13:55:30;26.03;;;11.20;;
6937;SDS011;40040;42.706;23.372;2023-01-16T13:58:06;16.50;;;8.67;;
6937;SDS011;40040;42.706;23.372;2023-01-16T14:00:35;19.20;;;9.33;;
6937;SDS011;40040;42.706;23.372;2023-01-16T14:03:15;20.53;;;10.43;;
6937;SDS011;40040;42.706;23.372;2023-01-16T14:05:47;26.37;;;10.93;;
6937;SDS011;40040;42.706;23.372;2023-01-16T14:11:41;24.63;;;10.80;;
6937;SDS011;40040;42.706;23.372;2023-01-16T14:14:34;26.90;;;13.33;;
6937;SDS011;40040;42.706;23.372;2023-01-16T14:20:35;18.20;;;9.43;;
6937;SDS011;40040;42.706;23.372;2023-01-16T14:23:13;18.00;;;9.07;;
6937;SDS011;40040;42.706;23.372;2023-01-16T14:26:01;23.13;;;11.73;;
6937;SDS011;40040;42.706;23.372;2023-01-16T14:28:31;24.57;;;11.20;;
6937;SDS011;40040;42.706;23.372;2023-01-16T14:30:59;25.03;;;11.30;;
6937;SDS011;40040;42.706;23.372;2023-01-16T14:33:27;25.40;;;14.00;;
6937;SDS011;40040;42.706;23.372;2023-01-16T14:35:55;24.87;;;11.43;;
6937;SDS011;40040;42.706;23.372;2023-01-16T14:38:25;27.07;;;11.87;;
6937;SDS011;40040;42.706;23.372;2023-01-16T14:40:56;25.00;;;12.17;;
6937;SDS011;40040;42.706;23.372;2023-01-16T14:44:01;29.37;;;13.57;;
6937;SDS011;40040;42.706;23.372;2023-01-16T14:46:58;29.67;;;13.80;;
6937;SDS011;40040;42.706;23.372;2023-01-16T14:49:58;22.57;;;11.07;;
6937;SDS011;40040;42.706;23.372;2023-01-16T14:52:51;21.97;;;11.03;;
6937;SDS011;40040;42.706;23.372;2023-01-16T14:55:43;24.47;;;12.00;;
6937;SDS011;40040;42.706;23.372;2023-01-16T14:58:14;21.87;;;11.10;;
6937;SDS011;40040;42.706;23.372;2023-01-16T15:00:49;25.60;;;13.20;;
6937;SDS011;40040;42.706;23.372;2023-01-16T15:03:20;22.63;;;11.17;;
6937;SDS011;40040;42.706;23.372;2023-01-16T15:05:50;25.00;;;11.70;;
6937;SDS011;40040;42.706;23.372;2023-01-16T15:08:24;27.93;;;14.60;;
6937;SDS011;40040;42.706;23.372;2023-01-16T15:10:54;27.63;;;13.23;;
6937;SDS011;40040;42.706;23.372;2023-01-16T15:13:23;24.87;;;12.07;;
6937;SDS011;40040;42.706;23.372;2023-01-16T15:15:53;20.20;;;9.37;;